sensor_id;sensor_type;location;lat;lon;timestamp;pressure;altitude;pressure_sealevel;temperature;humidity
82262;BME280;71861;52.364;6.580;2023-12-20T09:58:42;101316.59;;;6.29;100.00
82262;BME280;71861;52.364;6.580;2023-12-20T10:01:07;101316.00;;;6.37;100.00
82262;BME280;71861;52.364;6.580;2023-12-20T10:03:33;101328.44;;;6.43;100.00
82262;BME280;71861;52.364;6.580;2023-12-20T10:06:00;101335.59;;;6.50;100.00
82262;BME280;71861;52.364;6.580;2023-12-20T10:08:25;101339.31;;;6.57;100.00
82262;BME280;71861;52.364;6.580;2023-12-20T10:10:51;101330.97;;;6.65;100.00
82262;BME280;71861;52.364;6.580;2023-12-20T10:13:16;101328.44;;;6.86;100.00
82262;BME280;71861;52.364;6.580;2023-12-20T10:15:42;101335.44;;;7.06;100.00
82262;BME280;71861;52.364;6.580;2023-12-20T10:18:08;101331.78;;;7.08;100.00
82262;BME280;71861;52.364;6.580;2023-12-20T10:20:33;101338.47;;;7.11;100.00
82262;BME280;71861;52.364;6.580;2023-12-20T10:22:59;101327.16;;;7.43;100.00
82262;BME280;71861;52.364;6.580;2023-12-20T10:25:25;101331.56;;;7.52;100.00
82262;BME280;71861;52.364;6.580;2023-12-20T10:28:14;101332.63;;;7.50;100.00
82262;BME280;71861;52.364;6.580;2023-12-20T10:30:44;101322.53;;;7.47;100.00
82262;BME280;71861;52.364;6.580;2023-12-20T10:33:10;101324.75;;;7.51;100.00
82262;BME280;71861;52.364;6.580;2023-12-20T10:35:36;101323.19;;;7.60;100.00
82262;BME280;71861;52.364;6.580;2023-12-20T10:38:06;101315.34;;;7.71;100.00
82262;BME280;71861;52.364;6.580;2023-12-20T10:40:34;101310.97;;;7.71;100.00
82262;BME280;71861;52.364;6.580;2023-12-20T10:43:02;101320.34;;;7.83;100.00
82262;BME280;71861;52.364;6.580;2023-12-20T10:45:28;101308.56;;;8.00;100.00
82262;BME280;71861;52.364;6.580;2023-12-20T10:47:53;101296.03;;;8.05;100.00
82262;BME280;71861;52.364;6.580;2023-12-20T10:50:19;101294.44;;;8.13;100.00
82262;BME280;71861;52.364;6.580;2023-12-20T10:52:45;101292.09;;;8.10;100.00
82262;BME280;71861;52.364;6.580;2023-12-20T10:55:11;101299.44;;;8.05;100.00
82262;BME280;71861;52.364;6.580;2023-12-20T10:57:37;101289.88;;;7.96;100.00
82262;BME280;71861;52.364;6.580;2023-12-20T11:00:03;101287.09;;;7.88;100.00
82262;BME280;71861;52.364;6.580;2023-12-20T11:02:33;101288.84;;;7.78;100.00
82262;BME280;71861;52.364;6.580;2023-12-20T11:05:18;101289.50;;;7.71;100.00
82262;BME280;71861;52.364;6.580;2023-12-20T11:07:50;101295.31;;;7.63;100.00
82262;BME280;71861;52.364;6.580;2023-12-20T11:10:29;101302.03;;;7.55;100.00
82262;BME280;71861;52.364;6.580;2023-12-20T11:13:12;101285.94;;;7.51;100.00
82262;BME280;71861;52.364;6.580;2023-12-20T11:15:42;101284.31;;;7.50;100.00
82262;BME280;71861;52.364;6.580;2023-12-20T11:18:08;101288.00;;;7.48;100.00
82262;BME280;71861;52.364;6.580;2023-12-20T11:20:41;101286.22;;;7.48;100.00
82262;BME280;71861;52.364;6.580;2023-12-20T11:23:07;101292.34;;;7.47;100.00
82262;BME280;71861;52.364;6.580;2023-12-20T11:25:47;101297.31;;;7.39;100.00
82262;BME280;71861;52.364;6.580;2023-12-20T11:28:14;101321.84;;;7.24;100.00
82262;BME280;71861;52.364;6.580;2023-12-20T11:30:45;101314.94;;;6.82;100.00
82262;BME280;71861;52.364;6.580;2023-12-20T11:33:13;101316.44;;;6.42;100.00
82262;BME280;71861;52.364;6.580;2023-12-20T11:35:39;101312.59;;;6.14;100.00
82262;BME280;71861;52.364;6.580;2023-12-20T11:38:04;101306.28;;;5.96;100.00
82262;BME280;71861;52.364;6.580;2023-12-20T11:40:33;101308.63;;;5.88;100.00
82262;BME280;71861;52.364;6.580;2023-12-20T11:42:59;101313.31;;;5.83;100.00
82262;BME280;71861;52.364;6.580;2023-12-20T11:45:25;101291.22;;;5.68;100.00
82262;BME280;71861;52.364;6.580;2023-12-20T11:47:51;101306.22;;;5.74;100.00
82262;BME280;71861;52.364;6.580;2023-12-20T11:50:19;101303.66;;;5.74;100.00
82262;BME280;71861;52.364;6.580;2023-12-20T11:52:44;101305.31;;;5.75;100.00
82262;BME280;71861;52.364;6.580;2023-12-20T11:55:10;101306.22;;;5.74;100.00
82262;BME280;71861;52.364;6.580;2023-12-20T11:57:36;101299.94;;;5.78;100.00
82262;BME280;71861;52.364;6.580;2023-12-20T12:00:02;101312.50;;;5.83;100.00
82262;BME280;71861;52.364;6.580;2023-12-20T12:02:28;101313.19;;;5.85;100.00
82262;BME280;71861;52.364;6.580;2023-12-20T12:04:53;101312.59;;;5.92;100.00
82262;BME280;71861;52.364;6.580;2023-12-20T12:07:19;101303.34;;;6.01;100.00
82262;BME280;71861;52.364;6.580;2023-12-20T12:09:45;101308.75;;;6.09;100.00
82262;BME280;71861;52.364;6.580;2023-12-20T12:12:12;101310.38;;;6.10;100.00
82262;BME280;71861;52.364;6.580;2023-12-20T12:14:38;101294.66;;;6.13;100.00
82262;BME280;71861;52.364;6.580;2023-12-20T12:17:04;101282.47;;;6.15;100.00
82262;BME280;71861;52.364;6.580;2023-12-20T12:19:29;101286.81;;;6.14;100.00
82262;BME280;71861;52.364;6.580;2023-12-20T12:22:09;101297.00;;;6.16;100.00
82262;BME280;71861;52.364;6.580;2023-12-20T12:24:46;101285.28;;;6.12;100.00
82262;BME280;71861;52.364;6.580;2023-12-20T12:27:13;101288.69;;;6.12;100.00
82262;BME280;71861;52.364;6.580;2023-12-20T12:29:39;101284.34;;;6.13;100.00
82262;BME280;71861;52.364;6.580;2023-12-20T12:32:08;101275.91;;;6.11;100.00
82262;BME280;71861;52.364;6.580;2023-12-20T12:34:34;101282.25;;;6.07;100.00
82262;BME280;71861;52.364;6.580;2023-12-20T12:37:00;101277.19;;;6.05;100.00
82262;BME280;71861;52.364;6.580;2023-12-20T12:39:26;101276.72;;;6.00;100.00
82262;BME280;71861;52.364;6.580;2023-12-20T12:41:51;101270.28;;;5.95;100.00
82262;BME280;71861;52.364;6.580;2023-12-20T12:44:17;101265.25;;;5.93;100.00
82262;BME280;71861;52.364;6.580;2023-12-20T12:46:46;101262.06;;;5.90;100.00
82262;BME280;71861;52.364;6.580;2023-12-20T12:49:12;101261.13;;;5.91;100.00
82262;BME280;71861;52.364;6.580;2023-12-20T12:51:37;101260.22;;;5.92;100.00
82262;BME280;71861;52.364;6.580;2023-12-20T12:54:03;101253.88;;;5.85;100.00
82262;BME280;71861;52.364;6.580;2023-12-20T12:56:28;101265.00;;;5.85;100.00
82262;BME280;71861;52.364;6.580;2023-12-20T12:58:54;101257.41;;;5.84;100.00
82262;BME280;71861;52.364;6.580;2023-12-20T13:01:20;101252.94;;;5.86;100.00
82262;BME280;71861;52.364;6.580;2023-12-20T13:03:45;101235.69;;;5.86;100.00
82262;BME280;71861;52.364;6.580;2023-12-20T13:06:11;101245.88;;;5.88;100.00
82262;BME280;71861;52.364;6.580;2023-12-20T13:08:36;101230.19;;;5.91;100.00
82262;BME280;71861;52.364;6.580;2023-12-20T13:11:01;101220.81;;;5.90;100.00
82262;BME280;71861;52.364;6.580;2023-12-20T13:13:29;101210.25;;;5.93;100.00
82262;BME280;71861;52.364;6.580;2023-12-20T13:15:55;101209.78;;;5.99;100.00
82262;BME280;71861;52.364;6.580;2023-12-20T13:18:21;101209.66;;;6.00;100.00
82262;BME280;71861;52.364;6.580;2023-12-20T13:20:47;101212.13;;;6.02;100.00
82262;BME280;71861;52.364;6.580;2023-12-20T13:23:13;101206.03;;;6.03;100.00
82262;BME280;71861;52.364;6.580;2023-12-20T13:25:39;101204.84;;;6.07;100.00
82262;BME280;71861;52.364;6.580;2023-12-20T13:28:04;101204.72;;;6.08;100.00
82262;BME280;71861;52.364;6.580;2023-12-20T13:30:30;101195.22;;;6.09;100.00
82262;BME280;71861;52.364;6.580;2023-12-20T13:32:55;101199.44;;;6.10;100.00
82262;BME280;71861;52.364;6.580;2023-12-20T13:35:20;101209.06;;;6.08;100.00
82262;BME280;71861;52.364;6.580;2023-12-20T13:37:46;101197.09;;;6.07;100.00
82262;BME280;71861;52.364;6.580;2023-12-20T13:40:11;101185.16;;;6.06;100.00
82262;BME280;71861;52.364;6.580;2023-12-20T13:42:37;101184.66;;;6.12;100.00
82262;BME280;71861;52.364;6.580;2023-12-20T13:45:03;101177.41;;;6.17;100.00
82262;BME280;71861;52.364;6.580;2023-12-20T13:47:30;101162.34;;;6.22;100.00
82262;BME280;71861;52.364;6.580;2023-12-20T13:49:55;101171.75;;;6.23;100.00
82262;BME280;71861;52.364;6.580;2023-12-20T13:52:21;101175.72;;;6.27;100.00
82262;BME280;71861;52.364;6.580;2023-12-20T13:54:46;101174.75;;;6.28;100.00
82262;BME280;71861;52.364;6.580;2023-12-20T13:57:12;101168.56;;;6.30;100.00
82262;BME280;71861;52.364;6.580;2023-12-20T13:59:37;101158.78;;;6.34;100.00
82262;BME280;71861;52.364;6.580;2023-12-20T14:02:02;101163.72;;;6.37;100.00
82262;BME280;71861;52.364;6.580;2023-12-20T14:04:28;101161.81;;;6.39;100.00
82262;BME280;71861;52.364;6.580;2023-12-20T14:06:54;101166.72;;;6.42;100.00
82262;BME280;71861;52.364;6.580;2023-12-20T14:09:19;101163.09;;;6.44;100.00
82262;BME280;71861;52.364;6.580;2023-12-20T14:11:44;101164.72;;;6.45;100.00
82262;BME280;71861;52.364;6.580;2023-12-20T14:14:11;101162.03;;;6.47;100.00
82262;BME280;71861;52.364;6.580;2023-12-20T14:16:36;101151.56;;;6.48;100.00
82262;BME280;71861;52.364;6.580;2023-12-20T14:19:01;101158.13;;;6.52;100.00
82262;BME280;71861;52.364;6.580;2023-12-20T14:21:28;101161.03;;;6.59;100.00
82262;BME280;71861;52.364;6.580;2023-12-20T14:23:53;101158.91;;;6.64;100.00
82262;BME280;71861;52.364;6.580;2023-12-20T14:26:19;101155.81;;;6.70;100.00
82262;BME280;71861;52.364;6.580;2023-12-20T14:28:44;101150.16;;;6.76;100.00
82262;BME280;71861;52.364;6.580;2023-12-20T14:31:09;101163.38;;;6.82;100.00
82262;BME280;71861;52.364;6.580;2023-12-20T14:33:38;101166.53;;;6.86;100.00
82262;BME280;71861;52.364;6.580;2023-12-20T14:36:05;101166.03;;;6.92;100.00
82262;BME280;71861;52.364;6.580;2023-12-20T14:38:34;101172.56;;;6.96;100.00
82262;BME280;71861;52.364;6.580;2023-12-20T14:41:00;101172.44;;;6.98;100.00
82262;BME280;71861;52.364;6.580;2023-12-20T14:43:26;101161.97;;;6.99;100.00
82262;BME280;71861;52.364;6.580;2023-12-20T14:45:54;101155.06;;;7.00;100.00
82262;BME280;71861;52.364;6.580;2023-12-20T14:48:19;101158.47;;;7.00;100.00
82262;BME280;71861;52.364;6.580;2023-12-20T14:50:46;101161.84;;;7.01;100.00
82262;BME280;71861;52.364;6.580;2023-12-20T14:53:13;101168.09;;;6.98;100.00
82262;BME280;71861;52.364;6.580;2023-12-20T14:55:40;101170.69;;;6.98;100.00
82262;BME280;71861;52.364;6.580;2023-12-20T14:58:05;101160.34;;;6.98;100.00
82262;BME280;71861;52.364;6.580;2023-12-20T15:00:30;101163.06;;;6.97;100.00
82262;BME280;71861;52.364;6.580;2023-12-20T15:02:56;101161.41;;;6.96;100.00
82262;BME280;71861;52.364;6.580;2023-12-20T15:05:21;101170.69;;;6.98;100.00
82262;BME280;71861;52.364;6.580;2023-12-20T15:07:47;101169.88;;;6.98;100.00
82262;BME280;71861;52.364;6.580;2023-12-20T15:10:15;101167.41;;;6.96;100.00
82262;BME280;71861;52.364;6.580;2023-12-20T15:12:42;101167.53;;;6.95;100.00
82262;BME280;71861;52.364;6.580;2023-12-20T15:15:08;101173.53;;;6.95;100.00
82262;BME280;71861;52.364;6.580;2023-12-20T15:17:35;101173.78;;;6.92;100.00
82262;BME280;71861;52.364;6.580;2023-12-20T15:20:01;101169.28;;;6.94;100.00
82262;BME280;71861;52.364;6.580;2023-12-20T15:22:26;101173.66;;;6.94;100.00
82262;BME280;71861;52.364;6.580;2023-12-20T15:24:51;101180.44;;;6.95;100.00
82262;BME280;71861;52.364;6.580;2023-12-20T15:27:19;101176.13;;;6.95;100.00
82262;BME280;71861;52.364;6.580;2023-12-20T15:29:44;101165.53;;;6.98;100.00
82262;BME280;71861;52.364;6.580;2023-12-20T15:32:09;101149.75;;;7.01;100.00
82262;BME280;71861;52.364;6.580;2023-12-20T15:34:35;101135.69;;;6.94;100.00
82262;BME280;71861;52.364;6.580;2023-12-20T15:37:00;101143.91;;;6.99;100.00
82262;BME280;71861;52.364;6.580;2023-12-20T15:39:25;101139.94;;;6.95;100.00
82262;BME280;71861;52.364;6.580;2023-12-20T15:41:51;101142.97;;;7.00;100.00
82262;BME280;71861;52.364;6.580;2023-12-20T15:44:17;101134.78;;;6.95;100.00
82262;BME280;71861;52.364;6.580;2023-12-20T15:46:42;101144.59;;;7.01;100.00
82262;BME280;71861;52.364;6.580;2023-12-20T15:49:07;101129.94;;;7.02;100.00
82262;BME280;71861;52.364;6.580;2023-12-20T15:51:35;101107.97;;;6.96;100.00
82262;BME280;71861;52.364;6.580;2023-12-20T15:54:02;101126.38;;;7.03;100.00
82262;BME280;71861;52.364;6.580;2023-12-20T15:56:31;101126.63;;;7.00;100.00
82262;BME280;71861;52.364;6.580;2023-12-20T15:58:56;101124.44;;;6.95;100.00
82262;BME280;71861;52.364;6.580;2023-12-20T16:01:22;101118.06;;;6.99;100.00
82262;BME280;71861;52.364;6.580;2023-12-20T16:03:48;101131.09;;;6.98;100.00
82262;BME280;71861;52.364;6.580;2023-12-20T16:06:13;101119.28;;;6.95;100.00
82262;BME280;71861;52.364;6.580;2023-12-20T16:08:38;101112.72;;;6.91;100.00
82262;BME280;71861;52.364;6.580;2023-12-20T16:11:03;101113.53;;;6.92;100.00
82262;BME280;71861;52.364;6.580;2023-12-20T16:13:29;101107.53;;;6.91;100.00
82262;BME280;71861;52.364;6.580;2023-12-20T16:15:54;101114.38;;;6.92;100.00
82262;BME280;71861;52.364;6.580;2023-12-20T16:18:19;101104.28;;;6.89;100.00
82262;BME280;71861;52.364;6.580;2023-12-20T16:20:45;101102.88;;;6.85;100.00
82262;BME280;71861;52.364;6.580;2023-12-20T16:23:10;101099.25;;;6.88;100.00
82262;BME280;71861;52.364;6.580;2023-12-20T16:25:36;101099.38;;;6.86;100.00
82262;BME280;71861;52.364;6.580;2023-12-20T16:28:04;101096.94;;;6.85;100.00
82262;BME280;71861;52.364;6.580;2023-12-20T16:30:30;101092.69;;;6.83;100.00
82262;BME280;71861;52.364;6.580;2023-12-20T16:32:55;101086.97;;;6.80;100.00
82262;BME280;71861;52.364;6.580;2023-12-20T16:35:21;101093.78;;;6.81;100.00
82262;BME280;71861;52.364;6.580;2023-12-20T16:37:46;101092.13;;;6.80;100.00
82262;BME280;71861;52.364;6.580;2023-12-20T16:40:12;101085.19;;;6.80;100.00
82262;BME280;71861;52.364;6.580;2023-12-20T16:42:37;101086.97;;;6.80;100.00
82262;BME280;71861;52.364;6.580;2023-12-20T16:45:03;101072.16;;;6.82;100.00
82262;BME280;71861;52.364;6.580;2023-12-20T16:47:29;101074.84;;;6.80;100.00
82262;BME280;71861;52.364;6.580;2023-12-20T16:49:54;101062.06;;;6.79;100.00
82262;BME280;71861;52.364;6.580;2023-12-20T16:52:19;101064.53;;;6.80;100.00
82262;BME280;71861;52.364;6.580;2023-12-20T16:54:44;101056.91;;;6.79;100.00
82262;BME280;71861;52.364;6.580;2023-12-20T16:57:10;101050.81;;;6.80;100.00
82262;BME280;71861;52.364;6.580;2023-12-20T16:59:35;101051.63;;;6.80;100.00
82262;BME280;71861;52.364;6.580;2023-12-20T17:02:01;101038.69;;;6.80;100.00
82262;BME280;71861;52.364;6.580;2023-12-20T17:04:28;101038.69;;;6.80;100.00
82262;BME280;71861;52.364;6.580;2023-12-20T17:06:55;101028.38;;;6.80;100.00
82262;BME280;71861;52.364;6.580;2023-12-20T17:09:21;101030.16;;;6.80;100.00
82262;BME280;71861;52.364;6.580;2023-12-20T17:11:46;101026.75;;;6.79;100.00
82262;BME280;71861;52.364;6.580;2023-12-20T17:14:11;101021.56;;;6.79;100.00
82262;BME280;71861;52.364;6.580;2023-12-20T17:16:38;101022.94;;;6.83;100.00
82262;BME280;71861;52.364;6.580;2023-12-20T17:19:03;101005.25;;;6.79;100.00
82262;BME280;71861;52.364;6.580;2023-12-20T17:21:30;101007.84;;;6.79;100.00
82262;BME280;71861;52.364;6.580;2023-12-20T17:23:56;101001.75;;;6.80;100.00
82262;BME280;71861;52.364;6.580;2023-12-20T17:26:21;100994.34;;;6.75;100.00
82262;BME280;71861;52.364;6.580;2023-12-20T17:28:46;100992.34;;;6.79;100.00
82262;BME280;71861;52.364;6.580;2023-12-20T17:31:12;100980.50;;;6.76;100.00
82262;BME280;71861;52.364;6.580;2023-12-20T17:33:37;100972.38;;;6.81;100.00
82262;BME280;71861;52.364;6.580;2023-12-20T17:36:03;100978.22;;;6.83;100.00
82262;BME280;71861;52.364;6.580;2023-12-20T17:38:28;100980.81;;;6.83;100.00
82262;BME280;71861;52.364;6.580;2023-12-20T17:40:54;100965.31;;;6.83;100.00
82262;BME280;71861;52.364;6.580;2023-12-20T17:43:19;100967.78;;;6.85;100.00
82262;BME280;71861;52.364;6.580;2023-12-20T17:45:44;100960.03;;;6.85;100.00
82262;BME280;71861;52.364;6.580;2023-12-20T17:48:10;100950.75;;;6.82;100.00
82262;BME280;71861;52.364;6.580;2023-12-20T17:50:35;100961.66;;;6.86;100.00
82262;BME280;71861;52.364;6.580;2023-12-20T17:53:00;100953.91;;;6.86;100.00
82262;BME280;71861;52.364;6.580;2023-12-20T17:55:26;100945.19;;;6.87;100.00
82262;BME280;71861;52.364;6.580;2023-12-20T17:57:51;100949.28;;;6.89;100.00
82262;BME280;71861;52.364;6.580;2023-12-20T18:00:22;100937.19;;;6.90;100.00
82262;BME280;71861;52.364;6.580;2023-12-20T18:02:50;100930.25;;;6.90;100.00
82262;BME280;71861;52.364;6.580;2023-12-20T18:05:16;100926.03;;;6.89;100.00
82262;BME280;71861;52.364;6.580;2023-12-20T18:07:42;100931.09;;;6.91;100.00
82262;BME280;71861;52.364;6.580;2023-12-20T18:10:09;100922.25;;;6.93;100.00
82262;BME280;71861;52.364;6.580;2023-12-20T18:12:34;100899.94;;;6.92;100.00
82262;BME280;71861;52.364;6.580;2023-12-20T18:15:00;100929.03;;;6.94;100.00
82262;BME280;71861;52.364;6.580;2023-12-20T18:17:26;100920.34;;;6.95;100.00
82262;BME280;71861;52.364;6.580;2023-12-20T18:19:52;100909.88;;;6.97;100.00
82262;BME280;71861;52.364;6.580;2023-12-20T18:22:17;100904.72;;;6.97;100.00
82262;BME280;71861;52.364;6.580;2023-12-20T18:24:42;100900.34;;;6.97;100.00
82262;BME280;71861;52.364;6.580;2023-12-20T18:27:09;100902.81;;;6.99;100.00
82262;BME280;71861;52.364;6.580;2023-12-20T18:29:35;100900.09;;;7.00;100.00
82262;BME280;71861;52.364;6.580;2023-12-20T18:32:00;100893.16;;;7.01;100.00
82262;BME280;71861;52.364;6.580;2023-12-20T18:34:25;100897.38;;;7.02;100.00
82262;BME280;71861;52.364;6.580;2023-12-20T18:36:51;100898.06;;;7.04;100.00
82262;BME280;71861;52.364;6.580;2023-12-20T18:39:16;100896.28;;;7.04;100.00
82262;BME280;71861;52.364;6.580;2023-12-20T18:41:43;100867.75;;;7.06;100.00
82262;BME280;71861;52.364;6.580;2023-12-20T18:44:13;100879.56;;;7.08;100.00
82262;BME280;71861;52.364;6.580;2023-12-20T18:46:38;100882.00;;;7.10;100.00
82262;BME280;71861;52.364;6.580;2023-12-20T18:49:04;100876.84;;;7.10;100.00
82262;BME280;71861;52.364;6.580;2023-12-20T18:51:32;100861.19;;;7.11;100.00
82262;BME280;71861;52.364;6.580;2023-12-20T18:53:57;100856.72;;;7.13;100.00
82262;BME280;71861;52.364;6.580;2023-12-20T18:56:22;100853.88;;;7.16;100.00
82262;BME280;71861;52.364;6.580;2023-12-20T18:58:48;100857.13;;;7.18;100.00
82262;BME280;71861;52.364;6.580;2023-12-20T19:01:13;100831.16;;;7.20;100.00
82262;BME280;71861;52.364;6.580;2023-12-20T19:03:38;100844.63;;;7.23;100.00
82262;BME280;71861;52.364;6.580;2023-12-20T19:06:04;100847.88;;;7.25;100.00
82262;BME280;71861;52.364;6.580;2023-12-20T19:08:29;100840.81;;;7.27;100.00
82262;BME280;71861;52.364;6.580;2023-12-20T19:10:54;100837.25;;;7.28;100.00
82262;BME280;71861;52.364;6.580;2023-12-20T19:13:24;100833.75;;;7.29;100.00
82262;BME280;71861;52.364;6.580;2023-12-20T19:15:59;100824.75;;;7.33;100.00
82262;BME280;71861;52.364;6.580;2023-12-20T19:18:25;100822.84;;;7.35;100.00
82262;BME280;71861;52.364;6.580;2023-12-20T19:20:50;100819.16;;;7.38;100.00
82262;BME280;71861;52.364;6.580;2023-12-20T19:23:17;100816.44;;;7.39;100.00
82262;BME280;71861;52.364;6.580;2023-12-20T19:25:42;100815.50;;;7.40;100.00
82262;BME280;71861;52.364;6.580;2023-12-20T19:28:07;100818.75;;;7.42;100.00
82262;BME280;71861;52.364;6.580;2023-12-20T19:30:33;100817.97;;;7.42;100.00
82262;BME280;71861;52.364;6.580;2023-12-20T19:32:58;100813.31;;;7.45;100.00
82262;BME280;71861;52.364;6.580;2023-12-20T19:35:23;100798.06;;;7.42;100.00
82262;BME280;71861;52.364;6.580;2023-12-20T19:37:48;100785.56;;;7.47;100.00
82262;BME280;71861;52.364;6.580;2023-12-20T19:40:15;100789.75;;;7.48;100.00
82262;BME280;71861;52.364;6.580;2023-12-20T19:42:41;100793.16;;;7.49;100.00
82262;BME280;71861;52.364;6.580;2023-12-20T19:45:07;100791.94;;;7.53;100.00
82262;BME280;71861;52.364;6.580;2023-12-20T19:47:32;100782.41;;;7.53;100.00
82262;BME280;71861;52.364;6.580;2023-12-20T19:49:58;100781.44;;;7.54;100.00
82262;BME280;71861;52.364;6.580;2023-12-20T19:52:23;100738.16;;;7.56;100.00
82262;BME280;71861;52.364;6.580;2023-12-20T19:54:48;100767.28;;;7.58;100.00
82262;BME280;71861;52.364;6.580;2023-12-20T19:57:14;100771.38;;;7.61;100.00
82262;BME280;71861;52.364;6.580;2023-12-20T19:59:39;100775.75;;;7.60;100.00
82262;BME280;71861;52.364;6.580;2023-12-20T20:02:04;100768.91;;;7.59;100.00
82262;BME280;71861;52.364;6.580;2023-12-20T20:04:29;100768.63;;;7.62;100.00
82262;BME280;71861;52.364;6.580;2023-12-20T20:06:55;100770.16;;;7.65;100.00
82262;BME280;71861;52.364;6.580;2023-12-20T20:09:20;100764.16;;;7.64;100.00
82262;BME280;71861;52.364;6.580;2023-12-20T20:11:45;100753.66;;;7.66;100.00
82262;BME280;71861;52.364;6.580;2023-12-20T20:14:11;100757.72;;;7.68;100.00
82262;BME280;71861;52.364;6.580;2023-12-20T20:16:43;100756.09;;;7.67;100.00
82262;BME280;71861;52.364;6.580;2023-12-20T20:19:08;100758.56;;;7.69;100.00
82262;BME280;71861;52.364;6.580;2023-12-20T20:21:34;100761.00;;;7.70;100.00
82262;BME280;71861;52.364;6.580;2023-12-20T20:23:59;100761.00;;;7.70;100.00
82262;BME280;71861;52.364;6.580;2023-12-20T20:26:25;100755.69;;;7.72;100.00
82262;BME280;71861;52.364;6.580;2023-12-20T20:28:50;100739.63;;;7.68;100.00
82262;BME280;71861;52.364;6.580;2023-12-20T20:31:15;100750.38;;;7.73;100.00
82262;BME280;71861;52.364;6.580;2023-12-20T20:33:40;100757.16;;;7.74;100.00
82262;BME280;71861;52.364;6.580;2023-12-20T20:36:06;100749.13;;;7.77;100.00
82262;BME280;71861;52.364;6.580;2023-12-20T20:38:33;100765.84;;;7.83;100.00
82262;BME280;71861;52.364;6.580;2023-12-20T20:40:58;100759.19;;;7.80;100.00
82262;BME280;71861;52.364;6.580;2023-12-20T20:43:23;100759.06;;;7.82;100.00
82262;BME280;71861;52.364;6.580;2023-12-20T20:45:49;100747.75;;;7.83;100.00
82262;BME280;71861;52.364;6.580;2023-12-20T20:48:15;100733.84;;;7.84;100.00
82262;BME280;71861;52.364;6.580;2023-12-20T20:50:40;100735.34;;;7.86;100.00
82262;BME280;71861;52.364;6.580;2023-12-20T20:53:05;100732.91;;;7.85;100.00
82262;BME280;71861;52.364;6.580;2023-12-20T20:55:31;100728.25;;;7.88;100.00
82262;BME280;71861;52.364;6.580;2023-12-20T20:57:56;100712.06;;;7.86;100.00
82262;BME280;71861;52.364;6.580;2023-12-20T21:00:21;100717.59;;;7.91;100.00
82262;BME280;71861;52.364;6.580;2023-12-20T21:02:47;100727.81;;;7.93;100.00
82262;BME280;71861;52.364;6.580;2023-12-20T21:05:12;100733.81;;;7.93;100.00
82262;BME280;71861;52.364;6.580;2023-12-20T21:07:38;100727.53;;;7.96;100.00
82262;BME280;71861;52.364;6.580;2023-12-20T21:10:04;100722.34;;;7.96;100.00
82262;BME280;71861;52.364;6.580;2023-12-20T21:12:29;100700.56;;;7.98;100.00
82262;BME280;71861;52.364;6.580;2023-12-20T21:14:55;100699.59;;;7.99;100.00
82262;BME280;71861;52.364;6.580;2023-12-20T21:17:21;100706.38;;;8.00;100.00
82262;BME280;71861;52.364;6.580;2023-12-20T21:19:47;100699.31;;;8.02;100.00
82262;BME280;71861;52.364;6.580;2023-12-20T21:22:12;100701.88;;;8.02;100.00
82262;BME280;71861;52.364;6.580;2023-12-20T21:24:37;100685.44;;;8.03;100.00
82262;BME280;71861;52.364;6.580;2023-12-20T21:27:03;100692.06;;;8.06;100.00
82262;BME280;71861;52.364;6.580;2023-12-20T21:29:28;100686.91;;;8.06;100.00
82262;BME280;71861;52.364;6.580;2023-12-20T21:31:54;100664.56;;;8.05;100.00
82262;BME280;71861;52.364;6.580;2023-12-20T21:34:19;100667.81;;;8.07;100.00
82262;BME280;71861;52.364;6.580;2023-12-20T21:36:44;100664.13;;;8.09;100.00
82262;BME280;71861;52.364;6.580;2023-12-20T21:39:10;100647.78;;;8.09;100.00
82262;BME280;71861;52.364;6.580;2023-12-20T21:41:35;100640.56;;;8.12;100.00
82262;BME280;71861;52.364;6.580;2023-12-20T21:44:00;100649.09;;;8.13;100.00
82262;BME280;71861;52.364;6.580;2023-12-20T21:46:26;100659.59;;;8.11;100.00
82262;BME280;71861;52.364;6.580;2023-12-20T21:48:51;100662.19;;;8.11;100.00
82262;BME280;71861;52.364;6.580;2023-12-20T21:51:17;100661.59;;;8.17;100.00
82262;BME280;71861;52.364;6.580;2023-12-20T21:53:43;100663.41;;;8.17;100.00
82262;BME280;71861;52.364;6.580;2023-12-20T21:56:08;100674.41;;;8.19;100.00
82262;BME280;71861;52.364;6.580;2023-12-20T21:58:37;100668.44;;;8.18;100.00
82262;BME280;71861;52.364;6.580;2023-12-20T22:01:02;100678.50;;;8.21;100.00
82262;BME280;71861;52.364;6.580;2023-12-20T22:03:27;100675.91;;;8.21;100.00
82262;BME280;71861;52.364;6.580;2023-12-20T22:05:53;100693.75;;;8.24;100.00
82262;BME280;71861;52.364;6.580;2023-12-20T22:08:18;100685.84;;;8.26;100.00
82262;BME280;71861;52.364;6.580;2023-12-20T22:10:43;100680.41;;;8.19;100.00
82262;BME280;71861;52.364;6.580;2023-12-20T22:13:09;100686.66;;;8.26;100.00
82262;BME280;71861;52.364;6.580;2023-12-20T22:15:34;100687.91;;;8.22;100.00
82262;BME280;71861;52.364;6.580;2023-12-20T22:18:01;100702.84;;;8.28;100.00
82262;BME280;71861;52.364;6.580;2023-12-20T22:20:27;100705.44;;;8.28;100.00
82262;BME280;71861;52.364;6.580;2023-12-20T22:22:52;100685.69;;;8.27;100.00
82262;BME280;71861;52.364;6.580;2023-12-20T22:25:18;100681.19;;;8.29;100.00
82262;BME280;71861;52.364;6.580;2023-12-20T22:27:43;100679.41;;;8.30;100.00
82262;BME280;71861;52.364;6.580;2023-12-20T22:30:09;100675.06;;;8.30;100.00
82262;BME280;71861;52.364;6.580;2023-12-20T22:32:34;100667.28;;;8.30;100.00
82262;BME280;71861;52.364;6.580;2023-12-20T22:34:59;100678.47;;;8.31;100.00
82262;BME280;71861;52.364;6.580;2023-12-20T22:39:52;100660.19;;;8.32;100.00
82262;BME280;71861;52.364;6.580;2023-12-20T22:42:18;100654.19;;;8.32;100.00
82262;BME280;71861;52.364;6.580;2023-12-20T22:44:43;100661.00;;;8.33;100.00